Hopewell Junction, NY (12533)

2:43 PM EDT on September 01, 2015 (GMT -0400)
Vitek Backyard | | Change Station
CLOSE
Current Station
Personal Weather Station
Location: Hopewell Junction, NY
Elevation: 266 ft
Nearby Weather Stations

Elev 266 ft 41.59 °N, 73.83 °W | Updated 5 minutes ago

Partly Cloudy
Partly Cloudy
88.9 °F
Feels Like 88 °F
N
4.2
Wind Variable Wind from WSW

Today
High -- | Low -- °F
--% Chance of Precip.
Yesterday
High -- | Low -- °F
Precip. -- in
6:20 AM 7:28 PM
Waning Gibbous, 87% visible
Pressure 30.04 in
Visibility 10.0 miles
Clouds Scattered Clouds 4500 ft
Heat Index 88 °F
Dew Point 59 °F
Humidity 37%
Rainfall 0.00 in
Snow Depth Not available.
UV 7 out of 12
Pollen 9.50 out of 12
Air Quality Not available.
Flu Activity Not available.
METAR KPOU 011753Z 00000KT 10SM SCT045 29/16 A3004 RMK AO2 SLP170 T02940161 10300 20194 56009
Pressure 30.04 in
Visibility 10.0 miles
Clouds Scattered Clouds 4500 ft
Heat Index 88 °F
Dew Point 59 °F
Humidity 37%
Rainfall 0.00 in
Snow Depth Not available.
UV 7 out of 12
Pollen 9.50 out of 12
Air Quality Not available.
Flu Activity Not available.
METAR KPOU 011753Z 00000KT 10SM SCT045 29/16 A3004 RMK AO2 SLP170 T02940161 10300 20194 56009

10-Day Weather Forecast

×

Almanac

Astronomy

Sep. 01, 2015 Rise Set
Actual Time
Civil Twilight
Nautical Twilight
Astronomical Twilight
Moon
Length of Visible Light
Length of Day
Tomorrow will be .
, % of the Moon is Illuminated

Today's Extremes

State Highs State Lows

Community

WunderPhotos

Upload Photos

1,851,593 photos uploaded!

WunderBlogs® & News

Nearby

Air Quality

  Air Quality AQ Index Pollutant
Not available.

Snow Depth

Station Depth Elevation

Earthquake Activity

City Distance Mag. Time & Date
Minimum magnitude displayed is 2.5.

Coastal Water Temperatures

Place Temperature

Stations

Nearby Weather Stations

Station Location Temp. Windchill Dew Point Humidity Wind Precip. Elev Updated Type